Time;durP1;ratioP1;P1;durP2;ratioP2;P2;SDS_P1;SDS_P2;PMS_P1;PMS_P2;Temp;Humidity;BMP_temperature;BMP_pressure;BME280_temperature;BME280_humidity;BME280_pressure;Samples;Min_cycle;Max_cycle;Signal;HPM_P1;HPM_P2
2022/12/27 00:02:09;;;;;;;;;;;;;;;8.81;90.66;101165.47;5033821;28;19945;-63
2022/12/27 00:04:34;;;;;;;;;;;;;;;8.76;91.39;101174.38;5045490;28;19952;-64
2022/12/27 00:07:00;;;;;;;;;;;;;;;8.66;91.86;101164.72;5037207;28;20453;-63
2022/12/27 00:09:25;;;;;;;;;;;;;;;8.62;92.64;101173.56;5030647;28;19956;-64
2022/12/27 00:11:50;;;;;;;;;;;;;;;8.54;92.87;101172.75;5033136;28;19986;-64
2022/12/27 00:14:16;;;;;;;;;;;;;;;8.49;93.42;101177.19;5050266;28;19951;-64
2022/12/27 00:16:41;;;;;;;;;;;;;;;8.43;93.94;101185.19;5050575;28;19993;-64
2022/12/27 00:19:06;;;;;;;;;;;;;;;8.33;93.89;101184.34;5037792;28;19939;-64
2022/12/27 00:21:32;;;;;;;;;;;;;;;8.22;94.02;101180.81;5034484;28;19940;-64
2022/12/27 00:23:58;;;;;;;;;;;;;;;8.14;94.99;101172.03;5053667;28;19936;-64
2022/12/27 00:26:25;;;;;;;;;;;;;;;8.10;95.44;101180.00;5053603;28;20360;-65
2022/12/27 00:28:51;;;;;;;;;;;;;;;8.07;96.61;101181.78;5050744;28;19945;-64
2022/12/27 00:31:17;;;;;;;;;;;;;;;8.10;97.24;101172.06;5053789;28;20344;-64
2022/12/27 00:33:43;;;;;;;;;;;;;;;8.15;96.29;101180.88;5042447;28;20331;-65
2022/12/27 00:36:11;;;;;;;;;;;;;;;8.11;95.69;101176.44;5032567;28;19940;-64
2022/12/27 00:38:36;;;;;;;;;;;;;;;8.07;95.70;101182.66;5035776;28;20397;-64
2022/12/27 00:41:02;;;;;;;;;;;;;;;8.05;96.23;101177.38;5033844;28;19936;-63
2022/12/27 00:43:27;;;;;;;;;;;;;;;8.00;96.16;101185.34;5033714;28;19938;-63
2022/12/27 00:45:53;;;;;;;;;;;;;;;7.96;96.03;101194.19;5036136;28;19947;-64
2022/12/27 00:48:18;;;;;;;;;;;;;;;7.89;96.14;101196.88;5033802;28;19984;-64
2022/12/27 00:50:44;;;;;;;;;;;;;;;7.88;96.83;101200.38;5034384;28;19968;-64
2022/12/27 00:53:10;;;;;;;;;;;;;;;7.87;97.02;101202.13;5053376;28;20014;-63
2022/12/27 00:55:36;;;;;;;;;;;;;;;7.81;97.55;101204.81;5053291;28;19957;-63
2022/12/27 00:58:01;;;;;;;;;;;;;;;7.77;97.73;101207.50;5039674;28;20296;-64
2022/12/27 01:00:26;;;;;;;;;;;;;;;7.69;97.30;101209.28;5033590;28;19941;-64
2022/12/27 01:02:51;;;;;;;;;;;;;;;7.68;97.65;101202.19;5036568;28;20027;-64
2022/12/27 01:05:17;;;;;;;;;;;;;;;7.67;97.42;101206.63;5052564;28;19999;-64
2022/12/27 01:07:42;;;;;;;;;;;;;;;7.63;97.46;101214.56;5034936;28;19935;-64
2022/12/27 01:10:07;;;;;;;;;;;;;;;7.57;97.68;101207.53;5032376;28;19993;-64
2022/12/27 01:12:34;;;;;;;;;;;;;;;7.57;97.79;101210.19;5036397;28;19947;-64
2022/12/27 01:14:59;;;;;;;;;;;;;;;7.54;97.73;101215.47;5051895;28;19960;-64
2022/12/27 01:17:24;;;;;;;;;;;;;;;7.53;97.93;101224.28;5049489;28;19930;-63
2022/12/27 01:19:49;;;;;;;;;;;;;;;7.55;97.96;101211.03;5034343;28;19948;-64
2022/12/27 01:22:14;;;;;;;;;;;;;;;7.58;97.56;101211.94;5040511;28;19932;-63
2022/12/27 01:24:40;;;;;;;;;;;;;;;7.55;97.57;101213.69;5052936;28;19982;-62
2022/12/27 01:27:05;;;;;;;;;;;;;;;7.49;97.14;101225.19;5049350;28;20300;-61
2022/12/27 01:29:30;;;;;;;;;;;;;;;7.43;96.94;101222.53;5044265;28;19988;-61
2022/12/27 01:31:56;;;;;;;;;;;;;;;7.36;97.26;101215.50;5052875;28;19958;-61
2022/12/27 01:34:21;;;;;;;;;;;;;;;7.36;97.65;101215.50;5050439;28;20045;-62
2022/12/27 01:36:46;;;;;;;;;;;;;;;7.32;97.69;101223.41;5037540;28;20002;-61
2022/12/27 01:39:12;;;;;;;;;;;;;;;7.33;96.98;101220.78;5042253;28;19934;-61
2022/12/27 01:47:04;;;;;;;;;;;;;;;7.26;96.07;101242.84;5034578;28;20021;-64
2022/12/27 01:49:30;;;;;;;;;;;;;;;7.19;95.91;101242.81;5034584;28;19962;-63
2022/12/27 01:51:56;;;;;;;;;;;;;;;7.27;95.86;101243.69;5039740;28;20467;-64
2022/12/27 01:54:21;;;;;;;;;;;;;;;7.27;95.44;101254.28;5052008;28;19946;-63
2022/12/27 01:56:46;;;;;;;;;;;;;;;7.25;95.47;101267.53;5052351;28;20295;-63
2022/12/27 01:59:13;;;;;;;;;;;;;;;7.22;95.21;101262.22;5052318;28;19950;-63
2022/12/27 02:01:40;;;;;;;;;;;;;;;7.12;94.60;101268.41;5035427;28;19988;-68
2022/12/27 02:04:14;;;;;;;;;;;;;;;7.06;94.97;101265.75;5043562;28;19962;-68
2022/12/27 02:06:39;;;;;;;;;;;;;;;6.99;95.66;101277.19;5041143;28;20416;-68
2022/12/27 02:09:23;;;;;;;;;;;;;;;6.93;95.96;101274.53;5036316;28;19942;-68
2022/12/27 02:11:51;;;;;;;;;;;;;;;6.86;96.28;101280.69;5034481;28;20035;-67
2022/12/27 02:14:19;;;;;;;;;;;;;;;6.78;96.47;101276.25;5031984;28;20069;-67
2022/12/27 02:16:44;;;;;;;;;;;;;;;6.72;96.91;101271.84;5034731;28;20472;-67
2022/12/27 02:19:30;;;;;;;;;;;;;;;6.71;96.98;101275.34;5031855;28;19926;-67
2022/12/27 02:22:11;;;;;;;;;;;;;;;6.66;96.87;101274.47;5049682;28;20120;-67
2022/12/27 02:24:50;;;;;;;;;;;;;;;6.63;97.95;101275.34;5051894;28;19939;-67
2022/12/27 02:27:32;;;;;;;;;;;;;;;6.62;98.20;101280.63;5035627;28;19938;-67
2022/12/27 02:30:08;;;;;;;;;;;;;;;6.61;98.49;101278.84;5030884;28;19944;-66
2022/12/27 02:32:37;;;;;;;;;;;;;;;6.60;98.30;101277.09;5033203;28;19965;-67
2022/12/27 02:35:13;;;;;;;;;;;;;;;6.50;97.34;101280.56;5030015;28;20422;-67
2022/12/27 02:37:42;;;;;;;;;;;;;;;6.47;97.52;101270.84;5033028;28;19999;-67
2022/12/27 02:53:59;;;;;;;;;;;;;;;6.34;96.00;101273.47;5032031;28;19964;-67
2022/12/27 03:03:19;;;;;;;;;;;;;;;6.27;96.08;101276.94;5035007;28;19945;-67
2022/12/27 03:05:41;;;;;;;;;;;;;;;6.26;96.69;101277.84;5047982;28;19969;-67
2022/12/27 03:08:21;;;;;;;;;;;;;;;6.25;97.01;101274.31;5051808;28;19935;-67
2022/12/27 03:16:57;;;;;;;;;;;;;;;6.15;96.38;101282.16;5033728;28;20332;-67
2022/12/27 03:33:11;;;;;;;;;;;;;;;6.04;96.08;101278.59;5048688;28;20030;-67
2022/12/27 03:33:17;;;;;;;;;;;;;;;6.00;96.21;101284.72;5033673;28;20021;-68
2022/12/27 03:38:01;;;;;;;;;;;;;;;5.93;95.65;101285.56;5033112;28;20337;-68
2022/12/27 03:38:33;;;;;;;;;;;;;;;5.86;96.38;101283.75;5031060;28;19985;-68
2022/12/27 03:43:44;;;;;;;;;;;;;;;5.81;96.12;101285.44;5051378;28;20357;-68
2022/12/27 03:46:34;;;;;;;;;;;;;;;5.76;96.87;101287.16;5044494;28;20024;-67
2022/12/27 03:49:08;;;;;;;;;;;;;;;5.70;97.07;101293.28;5041791;28;19972;-65
2022/12/27 03:51:39;;;;;;;;;;;;;;;5.69;97.14;101290.63;5050449;28;19939;-65
2022/12/27 03:54:15;;;;;;;;;;;;;;;5.70;97.55;101302.97;5048410;28;19957;-65
2022/12/27 03:56:41;;;;;;;;;;;;;;;5.70;97.95;101297.69;5034589;28;19933;-66
2022/12/27 03:59:07;;;;;;;;;;;;;;;5.71;97.96;101296.81;5034632;28;19994;-65
2022/12/27 04:01:32;;;;;;;;;;;;;;;5.69;97.48;101302.09;5050832;28;20484;-66
2022/12/27 04:03:57;;;;;;;;;;;;;;;5.73;97.99;101303.00;5053356;28;20053;-67
2022/12/27 04:06:23;;;;;;;;;;;;;;;5.73;97.41;101309.16;5037873;28;19943;-67
2022/12/27 04:36:07;;;;;;;;;;;;;;;5.54;98.05;101311.63;5036084;28;19953;-67
2022/12/27 04:38:33;;;;;;;;;;;;;;;5.55;98.68;101309.03;5034059;28;20340;-68
2022/12/27 04:55:20;;;;;;;;;;;;;;;5.50;98.21;101305.47;5038456;28;19992;-67
2022/12/27 04:57:45;;;;;;;;;;;;;;;5.47;98.41;101307.19;5033760;28;20011;-68
2022/12/27 05:02:55;;;;;;;;;;;;;;;5.34;98.83;101299.16;5034924;28;19989;-67
2022/12/27 05:05:21;;;;;;;;;;;;;;;5.29;98.99;101300.88;5044827;28;19950;-68
2022/12/27 05:15:58;;;;;;;;;;;;;;;5.18;99.65;101312.19;5046229;28;19938;-66
2022/12/27 05:18:23;;;;;;;;;;;;;;;5.17;99.69;101311.28;5053213;28;19930;-67
2022/12/27 05:20:49;;;;;;;;;;;;;;;5.13;100.00;101316.53;5048687;28;19962;-66
2022/12/27 05:25:58;;;;;;;;;;;;;;;5.16;99.96;101320.09;5047972;28;19943;-67
2022/12/27 05:28:23;;;;;;;;;;;;;;;5.15;100.00;101320.97;5040979;28;20291;-66
2022/12/27 05:30:49;;;;;;;;;;;;;;;5.15;100.00;101320.06;5049120;28;19928;-66
2022/12/27 05:33:14;;;;;;;;;;;;;;;5.16;100.00;101322.72;5051884;28;19963;-67
2022/12/27 05:35:39;;;;;;;;;;;;;;;5.11;100.00;101327.06;5052108;28;19935;-67
2022/12/27 05:38:05;;;;;;;;;;;;;;;5.10;100.00;101322.66;5048009;28;19948;-66
2022/12/27 05:40:30;;;;;;;;;;;;;;;5.14;100.00;101331.50;5051665;28;19962;-66
2022/12/27 05:42:59;;;;;;;;;;;;;;;5.13;100.00;101329.72;5046891;28;20337;-66
2022/12/27 05:45:24;;;;;;;;;;;;;;;5.09;100.00;101333.22;5052304;28;19931;-67
2022/12/27 05:47:50;;;;;;;;;;;;;;;5.04;100.00;101325.22;5052617;28;19930;-66
2022/12/27 05:50:15;;;;;;;;;;;;;;;5.04;100.00;101330.50;5036882;28;19984;-66
2022/12/27 05:52:40;;;;;;;;;;;;;;;5.06;100.00;101328.78;5043479;28;19933;-66
2022/12/27 05:55:06;;;;;;;;;;;;;;;5.10;100.00;101334.97;5046085;28;20351;-66
2022/12/27 05:57:32;;;;;;;;;;;;;;;5.07;100.00;101335.78;5032962;28;19932;-66
2022/12/27 05:59:57;;;;;;;;;;;;;;;5.07;100.00;101345.47;5034319;28;19957;-65
2022/12/27 06:02:22;;;;;;;;;;;;;;;5.04;100.00;101345.47;5043335;28;19943;-67
2022/12/27 06:04:48;;;;;;;;;;;;;;;5.01;100.00;101343.66;5051584;28;20097;-67
2022/12/27 06:07:13;;;;;;;;;;;;;;;5.07;100.00;101333.16;5044315;28;19936;-67
2022/12/27 06:09:39;;;;;;;;;;;;;;;5.08;100.00;101329.69;5031465;28;19975;-67
2022/12/27 06:12:04;;;;;;;;;;;;;;;5.11;100.00;101331.44;5031087;28;19928;-67
2022/12/27 06:14:30;;;;;;;;;;;;;;;5.12;100.00;101331.47;5033290;28;20052;-67
2022/12/27 06:16:55;;;;;;;;;;;;;;;5.10;100.00;101335.84;5030174;28;19957;-67
2022/12/27 06:19:20;;;;;;;;;;;;;;;5.04;100.00;101335.78;5036602;28;20011;-68
2022/12/27 06:21:45;;;;;;;;;;;;;;;5.05;100.00;101332.28;5051376;28;19943;-67
2022/12/27 06:24:11;;;;;;;;;;;;;;;5.00;100.00;101341.00;5050982;28;20395;-67
2022/12/27 06:26:36;;;;;;;;;;;;;;;5.00;100.00;101335.72;5034471;28;19967;-67
2022/12/27 06:29:01;;;;;;;;;;;;;;;5.00;100.00;101347.16;5032014;28;19939;-68
2022/12/27 06:31:26;;;;;;;;;;;;;;;4.94;100.00;101347.09;5033829;28;19940;-68
2022/12/27 06:33:52;;;;;;;;;;;;;;;4.95;100.00;101351.50;5031796;28;19955;-69
2022/12/27 06:36:19;;;;;;;;;;;;;;;4.97;100.00;101360.31;5032497;28;19958;-70
2022/12/27 06:38:44;;;;;;;;;;;;;;;4.95;100.00;101355.88;5034180;28;19936;-69
2022/12/27 06:41:11;;;;;;;;;;;;;;;4.92;100.00;101356.75;5032007;28;19927;-69
2022/12/27 06:43:37;;;;;;;;;;;;;;;4.92;100.00;101362.03;5035423;28;19940;-69
2022/12/27 06:46:03;;;;;;;;;;;;;;;4.90;100.00;101368.13;5033614;28;19944;-68
2022/12/27 06:48:29;;;;;;;;;;;;;;;4.87;100.00;101365.47;5033667;28;20062;-69
2022/12/27 06:50:54;;;;;;;;;;;;;;;4.86;100.00;101363.72;5046467;28;20094;-68
2022/12/27 06:53:20;;;;;;;;;;;;;;;4.85;100.00;101360.16;5052991;28;19953;-68
2022/12/27 06:55:45;;;;;;;;;;;;;;;4.82;100.00;101364.53;5041716;28;20031;-68
2022/12/27 06:58:12;;;;;;;;;;;;;;;4.80;100.00;101368.88;5035147;28;19940;-68
2022/12/27 07:00:37;;;;;;;;;;;;;;;4.77;100.00;101371.47;5034966;28;20048;-68
2022/12/27 07:03:03;;;;;;;;;;;;;;;4.75;100.00;101368.84;5036606;28;20038;-67
2022/12/27 07:05:28;;;;;;;;;;;;;;;4.73;100.00;101367.03;5051958;28;19956;-68
2022/12/27 07:07:53;;;;;;;;;;;;;;;4.73;100.00;101374.94;5051951;28;20384;-68
2022/12/27 07:10:19;;;;;;;;;;;;;;;4.68;100.00;101372.25;5036455;28;19948;-68
2022/12/27 07:12:44;;;;;;;;;;;;;;;4.67;100.00;101374.88;5032600;28;20386;-68
2022/12/27 07:15:09;;;;;;;;;;;;;;;4.67;100.00;101366.97;5037718;28;19940;-68
2022/12/27 07:17:35;;;;;;;;;;;;;;;4.66;100.00;101379.25;5052049;28;19934;-68
2022/12/27 07:20:01;;;;;;;;;;;;;;;4.66;100.00;101383.66;5051058;28;19936;-67
2022/12/27 07:22:27;;;;;;;;;;;;;;;4.66;100.00;101383.66;5034115;28;19943;-68
2022/12/27 07:24:52;;;;;;;;;;;;;;;4.65;100.00;101392.41;5030158;28;19941;-67
2022/12/27 07:27:17;;;;;;;;;;;;;;;4.64;100.00;101390.66;5037379;28;19936;-68
2022/12/27 07:29:43;;;;;;;;;;;;;;;4.65;100.00;101398.56;5054449;28;19930;-68
2022/12/27 07:32:08;;;;;;;;;;;;;;;4.66;100.00;101395.06;5054232;28;19932;-68
2022/12/27 07:34:33;;;;;;;;;;;;;;;4.64;100.00;101386.28;5048925;28;19962;-68
2022/12/27 07:36:58;;;;;;;;;;;;;;;4.67;100.00;101386.31;5035009;28;19953;-68
2022/12/27 07:39:24;;;;;;;;;;;;;;;4.70;100.00;101395.97;5037827;28;19983;-68
2022/12/27 07:41:49;;;;;;;;;;;;;;;4.72;100.00;101399.53;5036654;28;19940;-68
2022/12/27 07:44:14;;;;;;;;;;;;;;;4.73;100.00;101407.47;5036410;28;20080;-68
2022/12/27 07:46:40;;;;;;;;;;;;;;;4.76;100.00;101407.50;5037945;28;20076;-68
2022/12/27 07:49:06;;;;;;;;;;;;;;;4.77;100.00;101406.66;5040343;28;19980;-68
2022/12/27 07:51:31;;;;;;;;;;;;;;;4.79;100.00;101407.56;5051274;28;19937;-68
2022/12/27 07:53:56;;;;;;;;;;;;;;;4.81;100.00;101410.22;5054977;28;19958;-68
2022/12/27 07:56:26;;;;;;;;;;;;;;;4.80;100.00;101397.88;5053451;28;19926;-68
2022/12/27 07:58:52;;;;;;;;;;;;;;;4.87;100.00;101399.72;5037291;28;19942;-68
2022/12/27 08:01:18;;;;;;;;;;;;;;;4.94;100.00;101402.44;5035460;28;19932;-68
2022/12/27 08:03:43;;;;;;;;;;;;;;;4.99;100.00;101392.84;5045963;28;19987;-68
2022/12/27 08:06:21;;;;;;;;;;;;;;;5.06;100.00;101401.69;5051112;28;19944;-68
2022/12/27 08:08:46;;;;;;;;;;;;;;;5.15;100.00;101396.56;5032122;28;19941;-68
2022/12/27 08:11:12;;;;;;;;;;;;;;;5.23;100.00;101385.22;5036394;28;19962;-68
2022/12/27 08:13:37;;;;;;;;;;;;;;;5.29;100.00;101385.28;5034153;28;19960;-68
2022/12/27 08:16:03;;;;;;;;;;;;;;;5.36;100.00;101381.84;5034202;28;19945;-68
2022/12/27 08:18:28;;;;;;;;;;;;;;;5.47;100.00;101378.44;5034226;28;19939;-69
2022/12/27 08:20:53;;;;;;;;;;;;;;;5.54;100.00;101381.13;5036467;28;19937;-68
2022/12/27 08:23:19;;;;;;;;;;;;;;;5.65;100.00;101384.72;5050726;28;19937;-68
2022/12/27 08:25:44;;;;;;;;;;;;;;;5.76;100.00;101385.75;5054799;28;20294;-69
2022/12/27 08:28:11;;;;;;;;;;;;;;;5.94;100.00;101382.38;5054828;28;19928;-69
2022/12/27 08:30:37;;;;;;;;;;;;;;;6.07;100.00;101384.25;5041141;28;19934;-68
2022/12/27 08:33:03;;;;;;;;;;;;;;;6.18;99.57;101382.56;5035315;28;19964;-68
2022/12/27 08:35:29;;;;;;;;;;;;;;;6.28;99.12;101385.28;5038003;28;20303;-69
2022/12/27 08:37:54;;;;;;;;;;;;;;;6.39;98.69;101388.00;5035594;28;19931;-68
2022/12/27 08:40:19;;;;;;;;;;;;;;;6.48;97.70;101393.31;5034959;28;20598;-68
2022/12/27 08:42:45;;;;;;;;;;;;;;;6.42;96.96;101398.59;5037750;28;19941;-69
2022/12/27 08:45:10;;;;;;;;;;;;;;;6.55;96.44;101401.31;5035894;28;19973;-69
2022/12/27 08:47:36;;;;;;;;;;;;;;;6.79;96.74;101395.25;5037795;28;20039;-69
2022/12/27 08:50:01;;;;;;;;;;;;;;;7.08;95.93;101404.22;5035491;28;20013;-69
2022/12/27 08:52:26;;;;;;;;;;;;;;;7.44;95.58;101403.41;5045596;28;20411;-69
2022/12/27 08:54:51;;;;;;;;;;;;;;;8.48;95.19;101395.50;5036845;28;19955;-69
2022/12/27 08:57:17;;;;;;;;;;;;;;;9.02;83.61;101396.22;5035164;28;19930;-69
2022/12/27 08:59:42;;;;;;;;;;;;;;;9.41;81.08;101395.09;5050241;28;20023;-69
2022/12/27 09:02:08;;;;;;;;;;;;;;;9.86;79.63;101400.13;5053190;28;20041;-70
2022/12/27 09:04:34;;;;;;;;;;;;;;;10.14;77.38;101369.78;5064181;28;20046;-69
2022/12/27 09:06:59;;;;;;;;;;;;;;;11.25;74.09;101404.88;5067488;28;20002;-70
2022/12/27 09:09:24;;;;;;;;;;;;;;;12.21;68.39;101407.88;5066949;28;19938;-69
2022/12/27 09:11:49;;;;;;;;;;;;;;;13.15;62.72;101409.66;5062783;28;20315;-70
2022/12/27 09:14:15;;;;;;;;;;;;;;;13.71;58.31;101419.09;5048870;28;20017;-70
2022/12/27 09:16:40;;;;;;;;;;;;;;;14.33;55.82;101421.19;5046728;28;19936;-70
2022/12/27 09:19:05;;;;;;;;;;;;;;;14.54;54.64;101420.63;5060947;28;19947;-69
2022/12/27 09:21:31;;;;;;;;;;;;;;;14.68;54.47;101418.44;5047955;28;19931;-70
2022/12/27 09:23:57;;;;;;;;;;;;;;;14.96;52.42;101424.78;5065173;28;20621;-70
2022/12/27 09:26:25;;;;;;;;;;;;;;;14.39;53.50;101426.38;5064842;28;19937;-70
2022/12/27 09:28:51;;;;;;;;;;;;;;;13.41;53.89;101425.16;5060673;28;19955;-70
2022/12/27 09:31:16;;;;;;;;;;;;;;;12.24;57.77;101431.81;5061653;28;19993;-70
2022/12/27 09:33:42;;;;;;;;;;;;;;;11.42;62.91;101445.50;5057344;28;19954;-68
2022/12/27 09:36:09;;;;;;;;;;;;;;;10.81;66.75;101438.28;5040029;28;20021;-69
2022/12/27 09:38:35;;;;;;;;;;;;;;;10.22;69.60;101439.72;5041060;28;19934;-69
2022/12/27 09:41:03;;;;;;;;;;;;;;;9.91;71.84;101447.91;5039778;28;20304;-69
2022/12/27 09:43:29;;;;;;;;;;;;;;;9.73;73.98;101450.69;5045449;28;19936;-69
2022/12/27 09:45:56;;;;;;;;;;;;;;;9.55;75.85;101446.38;5081223;28;19935;-69
2022/12/27 09:48:24;;;;;;;;;;;;;;;9.34;76.63;101450.03;5101138;28;19938;-69
2022/12/27 09:50:58;;;;;;;;;;;;;;;9.09;78.35;101442.19;5099564;28;19972;-69
2022/12/27 09:53:36;;;;;;;;;;;;;;;9.03;79.84;101445.72;5099926;28;22006;-69
2022/12/27 09:56:03;;;;;;;;;;;;;;;8.94;81.21;101439.59;5100618;28;19933;-69
2022/12/27 09:58:49;;;;;;;;;;;;;;;8.92;82.06;101446.66;5103608;28;19924;-69
2022/12/27 10:01:19;;;;;;;;;;;;;;;8.82;82.74;101445.81;5095020;28;20010;-69
2022/12/27 10:03:44;;;;;;;;;;;;;;;8.88;83.64;101448.44;5086895;28;19955;-69
2022/12/27 10:06:16;;;;;;;;;;;;;;;8.93;83.54;101449.31;5102600;28;19937;-69
2022/12/27 10:08:48;;;;;;;;;;;;;;;8.89;84.07;101436.06;5110674;28;19957;-69
2022/12/27 10:11:34;;;;;;;;;;;;;;;8.75;82.62;101443.16;5081704;28;19943;-69
2022/12/27 10:14:20;;;;;;;;;;;;;;;8.79;83.46;101439.63;5077536;28;19951;-69
2022/12/27 10:16:48;;;;;;;;;;;;;;;8.82;84.05;101429.00;5065891;28;19940;-69
2022/12/27 10:19:23;;;;;;;;;;;;;;;8.78;84.28;101432.56;5099192;28;19933;-69
2022/12/27 10:21:54;;;;;;;;;;;;;;;8.80;84.70;101430.75;5090535;28;19942;-69
2022/12/27 10:24:32;;;;;;;;;;;;;;;8.92;84.71;101418.38;5099398;28;19953;-69
2022/12/27 10:26:58;;;;;;;;;;;;;;;9.30;85.37;101418.19;5092875;28;19930;-69
2022/12/27 10:29:24;;;;;;;;;;;;;;;9.59;84.41;101416.25;5076735;28;19969;-69
2022/12/27 10:31:49;;;;;;;;;;;;;;;9.91;83.15;101410.72;5076759;28;19942;-69
2022/12/27 10:34:22;;;;;;;;;;;;;;;10.25;81.43;101410.44;5077081;28;20391;-69
2022/12/27 10:36:48;;;;;;;;;;;;;;;10.34;78.85;101407.72;5075901;28;20384;-69
2022/12/27 10:39:24;;;;;;;;;;;;;;;10.58;77.84;101404.81;5077922;28;20020;-69
2022/12/27 10:42:01;;;;;;;;;;;;;;;11.02;74.65;101401.63;5086283;28;20812;-69
2022/12/27 10:44:27;;;;;;;;;;;;;;;11.72;72.75;101398.91;5094771;28;21880;-69
2022/12/27 10:46:54;;;;;;;;;;;;;;;12.25;69.73;101388.25;5080092;28;19953;-68
2022/12/27 10:49:23;;;;;;;;;;;;;;;12.54;67.37;101388.59;5078988;28;20243;-69
2022/12/27 10:51:54;;;;;;;;;;;;;;;12.00;65.98;101391.34;5083957;28;19933;-69
2022/12/27 10:54:22;;;;;;;;;;;;;;;11.80;70.20;101400.56;5099386;28;19953;-69
2022/12/27 10:56:48;;;;;;;;;;;;;;;11.97;71.87;101404.72;5080138;28;19936;-69
2022/12/27 10:59:24;;;;;;;;;;;;;;;12.63;70.29;101404.44;5078206;28;19932;-70
2022/12/27 11:01:58;;;;;;;;;;;;;;;12.86;64.25;101399.53;5077499;28;19937;-69
2022/12/27 11:04:23;;;;;;;;;;;;;;;12.88;64.46;101403.03;5092132;28;19974;-69
2022/12/27 11:06:50;;;;;;;;;;;;;;;12.49;66.49;101397.56;5094704;28;20359;-69
2022/12/27 11:09:23;;;;;;;;;;;;;;;12.44;68.08;101397.66;5087645;28;19937;-70
2022/12/27 11:11:48;;;;;;;;;;;;;;;12.50;68.05;101392.25;5084874;28;20396;-70
2022/12/27 11:14:19;;;;;;;;;;;;;;;12.40;67.93;101403.09;5096614;28;19951;-70
2022/12/27 11:16:45;;;;;;;;;;;;;;;12.48;67.90;101395.84;5092443;28;19938;-70
2022/12/27 11:19:24;;;;;;;;;;;;;;;12.78;68.92;101400.59;5091812;28;19993;-70
2022/12/27 11:21:51;;;;;;;;;;;;;;;12.81;68.56;101396.09;5089764;28;19975;-70
2022/12/27 11:24:18;;;;;;;;;;;;;;;13.16;69.64;101392.72;5078557;28;20377;-70
2022/12/27 11:26:49;;;;;;;;;;;;;;;13.17;63.88;101395.38;5077483;28;19993;-70
2022/12/27 11:29:16;;;;;;;;;;;;;;;13.07;66.13;101396.47;5076895;28;19939;-69
2022/12/27 11:31:46;;;;;;;;;;;;;;;12.93;65.46;101390.47;5079459;28;19938;-70
2022/12/27 11:34:32;;;;;;;;;;;;;;;12.63;66.72;101384.88;5093536;28;19958;-68
2022/12/27 11:37:18;;;;;;;;;;;;;;;12.70;68.75;101386.53;5092996;28;20019;-68
2022/12/27 11:39:45;;;;;;;;;;;;;;;12.92;69.47;101371.81;5079489;28;19941;-67
2022/12/27 11:42:16;;;;;;;;;;;;;;;12.95;67.45;101383.31;5059204;28;19940;-70
2022/12/27 11:44:44;;;;;;;;;;;;;;;13.17;66.10;101371.31;5078988;28;20074;-69
2022/12/27 11:47:09;;;;;;;;;;;;;;;13.27;64.11;101363.97;5074085;28;19934;-70
2022/12/27 11:49:36;;;;;;;;;;;;;;;13.15;63.98;101370.47;5082496;28;20079;-69
2022/12/27 11:52:01;;;;;;;;;;;;;;;13.17;61.89;101373.09;5080593;28;19940;-70
2022/12/27 11:54:43;;;;;;;;;;;;;;;13.57;63.66;101375.75;5094617;28;19973;-69
2022/12/27 11:57:23;;;;;;;;;;;;;;;13.81;63.34;101367.16;5080440;28;19936;-69
2022/12/27 11:59:53;;;;;;;;;;;;;;;14.03;61.67;101363.03;5096209;28;20417;-69
2022/12/27 12:02:25;;;;;;;;;;;;;;;14.10;60.34;101361.97;5091567;28;20261;-69
2022/12/27 12:04:50;;;;;;;;;;;;;;;14.17;59.28;101358.19;5081835;28;20472;-68
2022/12/27 12:07:34;;;;;;;;;;;;;;;13.72;59.27;101362.03;5072177;28;19931;-68
2022/12/27 12:10:14;;;;;;;;;;;;;;;13.42;59.14;101360.06;5074618;28;20518;-68
2022/12/27 12:12:48;;;;;;;;;;;;;;;12.97;61.32;101360.13;5085890;28;19955;-68
2022/12/27 12:15:32;;;;;;;;;;;;;;;12.71;62.49;101362.47;5094063;28;20275;-68
2022/12/27 12:17:57;;;;;;;;;;;;;;;12.66;64.63;101369.69;5095232;28;19930;-69
2022/12/27 12:20:26;;;;;;;;;;;;;;;12.60;65.04;101369.78;5094507;28;19936;-69
2022/12/27 12:23:08;;;;;;;;;;;;;;;12.29;64.51;101367.75;5088051;28;20009;-69
2022/12/27 12:25:45;;;;;;;;;;;;;;;12.14;64.88;101368.00;5085105;28;20038;-69
2022/12/27 12:28:23;;;;;;;;;;;;;;;11.83;66.28;101367.63;5076491;28;19932;-69
2022/12/27 12:30:49;;;;;;;;;;;;;;;11.77;66.64;101357.97;5078479;28;19941;-69
2022/12/27 12:33:32;;;;;;;;;;;;;;;11.66;67.42;101354.56;5076990;28;19960;-69
2022/12/27 12:36:09;;;;;;;;;;;;;;;11.52;67.09;101356.53;5078404;28;19939;-69
2022/12/27 12:38:47;;;;;;;;;;;;;;;11.64;69.16;101358.16;5076029;28;19975;-69
2022/12/27 12:41:15;;;;;;;;;;;;;;;11.61;68.44;101356.38;5076604;28;19945;-68
2022/12/27 12:43:59;;;;;;;;;;;;;;;11.56;69.15;101352.03;5081379;28;19982;-69
2022/12/27 12:46:43;;;;;;;;;;;;;;;11.55;68.46;101355.59;5077937;28;19946;-68
2022/12/27 12:49:08;;;;;;;;;;;;;;;11.56;69.69;101362.72;5094613;28;20010;-68
2022/12/27 12:51:45;;;;;;;;;;;;;;;11.66;71.43;101367.03;5082359;28;19982;-68
2022/12/27 12:54:26;;;;;;;;;;;;;;;11.44;69.77;101360.22;5095888;28;20419;-68
2022/12/27 12:57:09;;;;;;;;;;;;;;;11.45;70.94;101354.84;5093118;28;20445;-68
2022/12/27 12:59:53;;;;;;;;;;;;;;;11.36;71.25;101359.44;5093542;28;19956;-69
2022/12/27 13:02:24;;;;;;;;;;;;;;;11.40;72.33;101358.50;5096505;28;20281;-69
2022/12/27 13:05:18;;;;;;;;;;;;;;;11.48;73.75;101351.28;5078457;28;19975;-69
2022/12/27 13:07:53;;;;;;;;;;;;;;;11.44;72.35;101347.78;5063575;28;19971;-69
2022/12/27 13:10:18;;;;;;;;;;;;;;;11.31;71.82;101346.19;5097179;28;19940;-69
2022/12/27 13:12:43;;;;;;;;;;;;;;;11.31;73.32;101338.22;5095523;28;19935;-68
2022/12/27 13:15:15;;;;;;;;;;;;;;;11.35;73.33;101337.25;5115579;28;19936;-69
2022/12/27 13:17:52;;;;;;;;;;;;;;;11.34;74.19;101342.59;5108730;28;19938;-69
2022/12/27 13:20:36;;;;;;;;;;;;;;;11.30;74.42;101335.56;5075316;28;19934;-69
2022/12/27 13:23:14;;;;;;;;;;;;;;;11.17;73.55;101332.19;5079879;28;19930;-69
2022/12/27 13:25:53;;;;;;;;;;;;;;;11.07;73.88;101322.56;5091009;28;19981;-69
2022/12/27 13:28:28;;;;;;;;;;;;;;;11.15;73.79;101333.97;5094250;28;19931;-68
2022/12/27 13:30:56;;;;;;;;;;;;;;;11.07;74.54;101335.00;5089648;28;19939;-68
2022/12/27 13:33:34;;;;;;;;;;;;;;;11.04;74.72;101330.59;5092948;28;19972;-68
2022/12/27 13:35:59;;;;;;;;;;;;;;;10.95;75.26;101329.84;5094406;28;19935;-68
2022/12/27 13:38:32;;;;;;;;;;;;;;;10.86;74.93;101335.28;5093528;28;20283;-68
2022/12/27 13:41:15;;;;;;;;;;;;;;;10.81;75.42;101337.13;5076219;28;19970;-68
2022/12/27 13:43:46;;;;;;;;;;;;;;;10.74;74.75;101338.09;5074979;28;20296;-68
2022/12/27 13:46:12;;;;;;;;;;;;;;;10.63;73.71;101333.78;5094969;28;20345;-68
2022/12/27 13:48:52;;;;;;;;;;;;;;;10.59;75.94;101337.38;5094254;28;19932;-67
2022/12/27 13:51:34;;;;;;;;;;;;;;;10.57;74.18;101332.97;5077613;28;19944;-68
2022/12/27 13:54:02;;;;;;;;;;;;;;;10.53;74.92;101333.91;5074576;28;19960;-68
2022/12/27 13:56:39;;;;;;;;;;;;;;;10.43;78.11;101327.81;5083584;28;20405;-68
2022/12/27 13:59:11;;;;;;;;;;;;;;;10.40;79.56;101327.84;5094868;28;20010;-68
2022/12/27 14:01:39;;;;;;;;;;;;;;;10.31;79.96;101319.97;5092460;28;19934;-68
2022/12/27 14:04:04;;;;;;;;;;;;;;;10.16;82.23;101325.47;5088768;28;19947;-69
2022/12/27 14:06:44;;;;;;;;;;;;;;;10.12;82.58;101317.50;5074545;28;19984;-69
2022/12/27 14:09:24;;;;;;;;;;;;;;;10.13;83.33;101317.50;5075110;28;20291;-68
2022/12/27 14:12:08;;;;;;;;;;;;;;;10.07;82.45;101309.56;5092570;28;19938;-68
2022/12/27 14:14:36;;;;;;;;;;;;;;;9.99;83.15;101306.09;5094770;28;19947;-69
2022/12/27 14:17:18;;;;;;;;;;;;;;;9.94;84.90;101299.06;5080909;28;19992;-70
2022/12/27 14:19:53;;;;;;;;;;;;;;;9.92;84.19;101299.06;5075014;28;19941;-70
2022/12/27 14:22:31;;;;;;;;;;;;;;;9.87;85.25;101297.34;5080391;28;19978;-70
2022/12/27 14:25:10;;;;;;;;;;;;;;;9.88;85.11;101292.03;5076671;28;19944;-69
2022/12/27 14:27:54;;;;;;;;;;;;;;;9.87;84.90;101295.56;5091714;28;19948;-69
2022/12/27 14:30:34;;;;;;;;;;;;;;;9.80;85.52;101291.19;5095765;28;19928;-70
2022/12/27 14:33:21;;;;;;;;;;;;;;;9.75;85.51;101290.34;5076152;28;19940;-69